Adel, Iowa
Current Conditions -  °F | °C
As of 12:35 AM on Monday 24 Nov 2014 (Local Time) from KPRO Reporting Station
Overcast Overcast  
Wind Chill: 21°   Ceiling: 2700
Heat Index: 32°   Visibility: 10mi
Dew Point: 27°   Wind: 20mph
Humidity: 82%   Direction: 320°NW
Pressure: 29.41"   Gusts: 33mph
Location:  41.61°N, 94.02°W
Report Text: KPRO 240635Z AUTO 32017G29KT 10SM OVC027 00/M03 A2941 RMK AO2 T00021026
Loading
Personal Weather Stations






























Interactive Weather Map New forecast layout! Learn more

10-Day Weather Forecast

Advertisements
Track Severe Weather on mobile